createdAt,value
2019-05-22T00:00:50.967Z,99851.89
2019-05-22T00:03:28.360Z,99849.72
2019-05-22T00:06:03.207Z,99846.58
2019-05-22T00:08:37.533Z,99848.39
2019-05-22T00:11:12.365Z,99842.52
2019-05-22T00:13:48.278Z,99849.28
2019-05-22T00:16:24.612Z,99839.91
2019-05-22T00:18:58.164Z,99841.45
2019-05-22T00:21:31.380Z,99841.23
2019-05-22T00:24:08.314Z,99845.59
2019-05-22T00:26:44.088Z,99846.84
2019-05-22T00:29:17.421Z,99838.03
2019-05-22T00:31:50.631Z,99834.97
2019-05-22T00:34:24.344Z,99836.70
2019-05-22T00:36:57.828Z,99834.41
2019-05-22T00:39:31.896Z,99846.08
2019-05-22T00:42:08.537Z,99841.58
2019-05-22T00:44:44.068Z,99845.75
2019-05-22T00:47:18.102Z,99848.14
2019-05-22T00:49:55.676Z,99843.75
2019-05-22T00:52:43.068Z,99841.98
2019-05-22T00:55:34.177Z,99845.67
2019-05-22T00:58:15.072Z,99847.84
2019-05-22T01:01:13.282Z,99847.30
2019-05-22T01:03:49.533Z,99851.61
2019-05-22T01:06:25.599Z,99840.84
2019-05-22T01:09:00.496Z,99836.39
2019-05-22T01:11:34.359Z,99841.00
2019-05-22T01:14:09.706Z,99839.67
2019-05-22T01:16:46.428Z,99848.00
2019-05-22T01:19:20.724Z,99847.23
2019-05-22T01:21:56.128Z,99847.23
2019-05-22T01:24:30.709Z,99846.97
2019-05-22T01:27:04.889Z,99844.88
2019-05-22T01:29:42.284Z,99850.66
2019-05-22T01:32:24.822Z,99849.22
2019-05-22T01:34:58.091Z,99855.02
2019-05-22T01:37:31.759Z,99859.47
2019-05-22T01:40:12.870Z,99860.14
2019-05-22T01:42:48.568Z,99862.09
2019-05-22T01:45:24.680Z,99861.61
2019-05-22T01:48:08.738Z,99863.41
2019-05-22T01:50:51.523Z,99870.39
2019-05-22T01:53:29.866Z,99871.83
2019-05-22T01:56:07.819Z,99875.14
2019-05-22T01:58:42.770Z,99870.42
2019-05-22T02:01:21.075Z,99861.06
2019-05-22T02:03:56.977Z,99871.05
2019-05-22T02:06:30.618Z,99866.44
2019-05-22T02:09:31.115Z,99869.58
2019-05-22T02:12:30.818Z,99869.72
2019-05-22T02:15:05.127Z,99877.06
2019-05-22T02:17:39.706Z,99876.50
2019-05-22T02:20:14.245Z,99883.03
2019-05-22T02:22:50.184Z,99880.48
2019-05-22T02:25:24.303Z,99874.36
2019-05-22T02:27:58.801Z,99875.98
2019-05-22T02:30:34.099Z,99872.66
2019-05-22T02:33:10.715Z,99869.23
2019-05-22T02:35:45.526Z,99865.17
2019-05-22T02:38:19.615Z,99866.21
2019-05-22T02:40:55.320Z,99872.92
2019-05-22T02:43:29.189Z,99869.31
2019-05-22T02:46:02.725Z,99864.45
2019-05-22T02:48:37.248Z,99865.73
2019-05-22T02:51:10.464Z,99864.81
2019-05-22T02:53:44.831Z,99862.27
2019-05-22T02:56:18.310Z,99866.63
2019-05-22T02:58:51.809Z,99880.45
2019-05-22T03:01:26.911Z,99877.44
2019-05-22T03:04:00.218Z,99899.19
2019-05-22T03:06:36.021Z,99894.20
2019-05-22T03:09:28.821Z,99890.59
2019-05-22T03:12:16.470Z,99892.77
2019-05-22T03:14:50.111Z,99900.26
2019-05-22T03:17:31.056Z,99901.52
2019-05-22T03:20:11.943Z,99900.62
2019-05-22T03:23:38.154Z,99904.34
2019-05-22T03:26:13.751Z,99897.56
2019-05-22T03:28:48.203Z,99904.55
2019-05-22T03:31:21.910Z,99897.99
2019-05-22T03:33:55.902Z,99903.33
2019-05-22T03:36:31.580Z,99904.91
2019-05-22T03:39:08.235Z,99907.43
2019-05-22T03:41:43.114Z,99919.13
2019-05-22T03:44:17.645Z,99921.43
2019-05-22T03:46:51.550Z,99923.18
2019-05-22T03:49:30.528Z,99921.12
2019-05-22T03:52:01.301Z,99921.09
2019-05-22T03:54:35.677Z,99927.34
2019-05-22T03:57:10.721Z,99931.70
2019-05-22T03:59:43.949Z,99933.52
2019-05-22T04:02:18.862Z,99931.16
2019-05-22T04:04:52.345Z,99928.27
2019-05-22T04:07:26.764Z,99927.03
2019-05-22T04:10:01.682Z,99927.65
2019-05-22T04:12:35.002Z,99929.81
2019-05-22T04:15:12.460Z,99930.11
2019-05-22T04:17:46.019Z,99936.58
2019-05-22T04:20:21.865Z,99941.51
2019-05-22T04:22:59.872Z,99940.50
2019-05-22T04:25:33.914Z,99933.87
2019-05-22T04:28:07.822Z,99943.88
2019-05-22T04:30:41.431Z,99944.78
2019-05-22T04:33:15.833Z,99950.50
2019-05-22T04:35:50.370Z,99953.15
2019-05-22T04:38:24.575Z,99949.72
2019-05-22T04:41:00.081Z,99951.89
2019-05-22T04:43:40.630Z,99957.30
2019-05-22T04:46:21.636Z,99955.73
2019-05-22T04:48:59.130Z,99954.53
2019-05-22T04:51:32.865Z,99949.47
2019-05-22T04:54:06.525Z,99954.55
2019-05-22T04:56:40.350Z,99946.59
2019-05-22T04:59:15.115Z,99947.86
2019-05-22T05:01:49.146Z,99951.82
2019-05-22T05:04:23.222Z,99947.30
2019-05-22T05:06:57.947Z,99955.26
2019-05-22T05:09:31.834Z,99954.60
2019-05-22T05:12:05.847Z,99960.02
2019-05-22T05:14:39.836Z,99962.56
2019-05-22T05:17:14.308Z,99968.29
2019-05-22T05:19:47.638Z,99971.55
2019-05-22T05:22:33.980Z,99967.14
2019-05-22T05:25:07.274Z,99967.14
2019-05-22T05:27:40.588Z,99965.22
2019-05-22T05:30:15.468Z,99972.56
2019-05-22T05:32:48.904Z,99970.14
2019-05-22T05:35:24.008Z,99968.56
2019-05-22T05:37:57.420Z,99968.11
2019-05-22T05:40:40.612Z,99976.59
2019-05-22T05:43:17.482Z,99976.84
2019-05-22T05:45:52.525Z,99983.55
2019-05-22T05:48:28.606Z,99988.06
2019-05-22T05:51:26.006Z,99987.14
2019-05-22T05:54:06.032Z,99988.48
2019-05-22T05:56:43.252Z,99988.17
2019-05-22T05:59:18.050Z,99990.72
2019-05-22T06:01:58.179Z,99991.80
2019-05-22T06:04:38.513Z,100000.16
2019-05-22T06:07:25.477Z,99997.28
2019-05-22T06:11:11.437Z,99992.64
2019-05-22T06:13:44.856Z,99998.30
2019-05-22T06:17:27.296Z,99998.12
2019-05-22T06:20:06.175Z,99994.99
2019-05-22T06:22:42.729Z,99999.09
2019-05-22T06:25:16.725Z,100003.08
2019-05-22T06:27:55.213Z,100000.89
2019-05-22T06:30:46.525Z,99999.16
2019-05-22T06:33:37.815Z,100002.52
2019-05-22T06:36:17.313Z,100003.75
2019-05-22T06:39:14.157Z,99998.84
2019-05-22T06:41:49.909Z,99993.84
2019-05-22T06:44:44.548Z,99998.20
2019-05-22T06:47:26.015Z,100006.20
2019-05-22T06:49:59.878Z,100012.51
2019-05-22T06:52:33.218Z,100013.05
2019-05-22T06:55:07.637Z,100012.44
2019-05-22T06:57:41.165Z,100008.76
2019-05-22T07:00:21.879Z,100011.95
2019-05-22T07:02:56.401Z,100020.45
2019-05-22T07:05:30.529Z,100023.70
2019-05-22T07:08:06.067Z,100024.15
2019-05-22T07:10:41.688Z,100024.69
2019-05-22T07:13:17.131Z,100027.64
2019-05-22T07:15:54.160Z,100031.93
2019-05-22T07:18:31.010Z,100030.94
2019-05-22T07:21:05.198Z,100026.61
2019-05-22T07:23:38.558Z,100036.39
2019-05-22T07:26:12.168Z,100038.27
2019-05-22T07:28:46.231Z,100042.17
2019-05-22T07:31:20.440Z,100051.16
2019-05-22T07:33:55.928Z,100047.18
2019-05-22T07:36:31.893Z,100053.81
2019-05-22T07:39:07.279Z,100051.70
2019-05-22T07:41:41.301Z,100056.29
2019-05-22T07:44:14.817Z,100055.20
2019-05-22T07:46:48.144Z,100053.16
2019-05-22T07:49:22.786Z,100061.37
2019-05-22T07:52:01.555Z,100053.52
2019-05-22T07:54:31.954Z,100060.34
2019-05-22T07:57:06.796Z,100059.60
2019-05-22T07:59:40.240Z,100059.95
2019-05-22T08:02:14.671Z,100058.53
2019-05-22T08:04:48.109Z,100064.11
2019-05-22T08:07:24.560Z,100066.95
2019-05-22T08:09:57.752Z,100065.18
2019-05-22T08:12:32.229Z,100064.56
2019-05-22T08:15:07.664Z,100072.75
2019-05-22T08:17:41.943Z,100069.80
2019-05-22T08:20:15.882Z,100065.22
2019-05-22T08:22:51.545Z,100067.77
2019-05-22T08:25:24.931Z,100073.73
2019-05-22T08:28:00.225Z,100073.33
2019-05-22T08:30:33.559Z,100073.33
2019-05-22T08:33:11.713Z,100075.25
2019-05-22T08:35:45.934Z,100077.98
2019-05-22T08:38:20.179Z,100081.73
2019-05-22T08:40:54.619Z,100082.56
2019-05-22T08:43:28.922Z,100087.98
2019-05-22T08:46:03.072Z,100095.71
2019-05-22T08:48:46.203Z,100100.48
2019-05-22T08:51:14.664Z,100097.58
2019-05-22T08:53:48.815Z,100098.13
2019-05-22T08:56:22.728Z,100112.75
2019-05-22T08:58:56.563Z,100113.36
2019-05-22T09:01:31.826Z,100111.48
2019-05-22T09:04:05.517Z,100112.62
2019-05-22T09:06:38.930Z,100111.39
2019-05-22T09:09:12.198Z,100120.33
2019-05-22T09:11:45.410Z,100119.68
2019-05-22T09:14:18.792Z,100121.73
2019-05-22T09:16:53.458Z,100128.14
2019-05-22T09:19:27.676Z,100126.64
2019-05-22T09:22:01.312Z,100123.92
2019-05-22T09:24:34.766Z,100125.73
2019-05-22T09:27:08.152Z,100124.17
2019-05-22T09:29:41.604Z,100131.45
2019-05-22T09:32:14.811Z,100131.22
2019-05-22T09:34:48.469Z,100132.92
2019-05-22T09:37:21.680Z,100131.59
2019-05-22T09:39:55.047Z,100137.85
2019-05-22T09:42:29.060Z,100140.03
2019-05-22T09:45:02.349Z,100142.31
2019-05-22T09:47:35.679Z,100147.92
2019-05-22T09:50:10.548Z,100142.20
2019-05-22T09:52:57.078Z,100149.22
2019-05-22T09:55:22.429Z,100157.83
2019-05-22T09:57:56.041Z,100158.92
2019-05-22T10:00:30.768Z,100158.68
2019-05-22T10:03:04.148Z,100166.48
2019-05-22T10:05:37.910Z,100162.66
2019-05-22T10:08:11.286Z,100169.96
2019-05-22T10:10:44.828Z,100166.23
2019-05-22T10:13:18.063Z,100171.98
2019-05-22T10:15:51.251Z,100178.09
2019-05-22T10:18:25.251Z,100180.06
2019-05-22T10:20:58.998Z,100184.17
2019-05-22T10:23:33.378Z,100180.88
2019-05-22T10:26:06.893Z,100186.00
2019-05-22T10:28:42.384Z,100185.74
2019-05-22T10:31:17.754Z,100191.36
2019-05-22T10:33:52.011Z,100194.06
2019-05-22T10:36:25.609Z,100185.74
2019-05-22T10:38:59.366Z,100183.27
2019-05-22T10:41:33.528Z,100189.11
2019-05-22T10:44:07.754Z,100194.05
2019-05-22T10:46:41.010Z,100199.15
2019-05-22T10:49:14.244Z,100205.29
2019-05-22T10:51:48.033Z,100203.19
2019-05-22T10:54:21.337Z,100205.08
2019-05-22T10:56:54.575Z,100205.64
2019-05-22T10:59:27.798Z,100207.11
2019-05-22T11:02:01.155Z,100200.24
2019-05-22T11:04:34.733Z,100198.00
2019-05-22T11:07:08.082Z,100200.75
2019-05-22T11:09:42.296Z,100198.20
2019-05-22T11:12:16.669Z,100202.83
2019-05-22T11:14:50.348Z,100202.20
2019-05-22T11:17:23.747Z,100200.41
2019-05-22T11:19:57.153Z,100208.03
2019-05-22T11:22:34.838Z,100201.45
2019-05-22T11:25:09.062Z,100210.34
2019-05-22T11:27:42.405Z,100204.03
2019-05-22T11:30:17.623Z,100200.31
2019-05-22T11:32:50.810Z,100192.80
2019-05-22T11:35:24.900Z,100196.36
2019-05-22T11:37:59.224Z,100193.29
2019-05-22T11:40:34.131Z,100188.83
2019-05-22T11:43:07.922Z,100200.31
2019-05-22T11:45:44.985Z,100201.27
2019-05-22T11:48:16.184Z,100208.36
2019-05-22T11:50:49.989Z,100211.56
2019-05-22T11:53:23.397Z,100214.87
2019-05-22T11:55:56.623Z,100212.58
2019-05-22T11:58:30.179Z,100218.02
2019-05-22T12:01:04.478Z,100227.16
2019-05-22T12:03:37.825Z,100222.25
2019-05-22T12:06:12.181Z,100223.98
2019-05-22T12:08:48.910Z,100233.28
2019-05-22T12:11:22.694Z,100233.67
2019-05-22T12:13:57.332Z,100221.38
2019-05-22T12:16:31.100Z,100227.88
2019-05-22T12:19:04.535Z,100220.74
2019-05-22T12:21:51.908Z,100232.79
2019-05-22T12:24:30.182Z,100232.52
2019-05-22T12:27:00.908Z,100241.02
2019-05-22T12:29:34.589Z,100236.41
2019-05-22T12:32:09.015Z,100233.80
2019-05-22T12:34:42.269Z,100230.82
2019-05-22T12:37:15.605Z,100230.82
2019-05-22T12:39:48.958Z,100231.88
2019-05-22T12:42:22.342Z,100236.31
2019-05-22T12:44:55.874Z,100236.31
2019-05-22T12:47:29.472Z,100227.57
2019-05-22T12:50:03.566Z,100239.50
2019-05-22T12:52:36.896Z,100237.36
2019-05-22T12:55:10.924Z,100240.63
2019-05-22T12:57:44.146Z,100244.17
2019-05-22T13:00:21.154Z,100247.48
2019-05-22T13:02:55.989Z,100235.75
2019-05-22T13:05:31.110Z,100237.97
2019-05-22T13:08:05.266Z,100237.59
2019-05-22T13:10:39.610Z,100233.50
2019-05-22T13:13:13.017Z,100236.53
2019-05-22T13:15:46.351Z,100224.39
2019-05-22T13:18:22.173Z,100226.38
2019-05-22T13:20:55.947Z,100217.72
2019-05-22T13:23:35.929Z,100216.87
2019-05-22T13:26:10.898Z,100220.48
2019-05-22T13:28:47.317Z,100226.01
2019-05-22T13:31:21.420Z,100222.88
2019-05-22T13:33:57.272Z,100217.92
2019-05-22T13:36:31.139Z,100228.16
2019-05-22T13:39:05.315Z,100233.48
2019-05-22T13:41:38.711Z,100235.73
2019-05-22T13:44:12.479Z,100231.90
2019-05-22T13:46:46.521Z,100233.14
2019-05-22T13:49:20.236Z,100227.88
2019-05-22T13:51:54.455Z,100236.48
2019-05-22T13:54:28.300Z,100240.39
2019-05-22T13:57:03.724Z,100240.65
2019-05-22T13:59:37.250Z,100243.89
2019-05-22T14:02:11.053Z,100247.30
2019-05-22T14:04:44.387Z,100250.81
2019-05-22T14:07:30.905Z,100249.59
2019-05-22T14:10:09.396Z,100250.73
2019-05-22T14:12:42.880Z,100261.04
2019-05-22T14:15:16.941Z,100261.23
2019-05-22T14:17:50.261Z,100260.92
2019-05-22T14:20:24.170Z,100263.02
2019-05-22T14:22:57.597Z,100262.39
2019-05-22T14:25:31.927Z,100264.38
2019-05-22T14:28:07.611Z,100266.91
2019-05-22T14:30:41.121Z,100270.14
2019-05-22T14:33:14.767Z,100277.09
2019-05-22T14:35:49.728Z,100277.58
2019-05-22T14:38:23.865Z,100273.29
2019-05-22T14:40:57.330Z,100279.66
2019-05-22T14:43:31.271Z,100282.12
2019-05-22T14:46:05.899Z,100278.67
2019-05-22T14:48:41.084Z,100284.84
2019-05-22T14:51:14.718Z,100288.41
2019-05-22T14:53:50.342Z,100293.97
2019-05-22T14:56:34.883Z,100289.67
2019-05-22T14:59:16.210Z,100288.83
2019-05-22T15:01:53.689Z,100284.08
2019-05-22T15:04:29.070Z,100284.99
2019-05-22T15:07:08.768Z,100282.41
2019-05-22T15:09:42.150Z,100292.27
2019-05-22T15:12:15.562Z,100299.56
2019-05-22T15:14:48.907Z,100311.50
2019-05-22T15:17:32.563Z,100313.36
2019-05-22T15:19:57.783Z,100318.79
2019-05-22T15:22:31.238Z,100312.91
2019-05-22T15:25:04.957Z,100308.64
2019-05-22T15:27:39.203Z,100314.59
2019-05-22T15:30:13.409Z,100303.10
2019-05-22T15:32:46.701Z,100319.71
2019-05-22T15:35:21.213Z,100324.97
2019-05-22T15:37:56.037Z,100326.22
2019-05-22T15:40:29.820Z,100332.69
2019-05-22T15:43:03.361Z,100339.81
2019-05-22T15:45:37.639Z,100343.55
2019-05-22T15:48:16.114Z,100338.71
2019-05-22T15:50:53.780Z,100331.13
2019-05-22T15:53:28.409Z,100326.02
2019-05-22T15:56:06.898Z,100330.31
2019-05-22T15:58:47.187Z,100326.67
2019-05-22T16:01:25.658Z,100331.33
2019-05-22T16:03:59.398Z,100340.06
2019-05-22T16:06:33.534Z,100342.41
2019-05-22T16:09:10.344Z,100337.38
2019-05-22T16:11:44.901Z,100356.31
2019-05-22T16:14:18.608Z,100348.86
2019-05-22T16:16:53.475Z,100347.72
2019-05-22T16:19:28.587Z,100348.92
2019-05-22T16:22:05.378Z,100349.90
2019-05-22T16:24:40.689Z,100348.67
2019-05-22T16:27:15.374Z,100353.50
2019-05-22T16:29:49.399Z,100341.08
2019-05-22T16:32:23.548Z,100341.17
2019-05-22T16:34:57.661Z,100340.58
2019-05-22T16:37:32.482Z,100338.84
2019-05-22T16:40:06.685Z,100343.23
2019-05-22T16:42:40.415Z,100336.16
2019-05-22T16:45:14.244Z,100339.03
2019-05-22T16:47:48.064Z,100339.37
2019-05-22T16:50:21.988Z,100336.56
2019-05-22T16:52:56.685Z,100353.02
2019-05-22T16:55:32.223Z,100353.22
2019-05-22T16:58:05.764Z,100345.37
2019-05-22T17:00:40.043Z,100336.78
2019-05-22T17:03:14.764Z,100333.27
2019-05-22T17:05:48.622Z,100341.02
2019-05-22T17:08:23.077Z,100348.66
2019-05-22T17:10:59.786Z,100357.34
2019-05-22T17:13:35.409Z,100367.42
2019-05-22T17:16:09.697Z,100373.84
2019-05-22T17:18:47.799Z,100379.27
2019-05-22T17:21:19.133Z,100381.80
2019-05-22T17:23:53.014Z,100387.31
2019-05-22T17:26:27.419Z,100380.83
2019-05-22T17:29:01.280Z,100379.77
2019-05-22T17:31:34.886Z,100392.55
2019-05-22T17:34:27.651Z,100388.45
2019-05-22T17:37:02.898Z,100398.75
2019-05-22T17:39:38.872Z,100394.39
2019-05-22T17:42:16.524Z,100389.77
2019-05-22T17:44:51.794Z,100390.19
2019-05-22T17:47:27.318Z,100389.45
2019-05-22T17:50:03.413Z,100388.45
2019-05-22T17:52:37.222Z,100389.23
2019-05-22T17:55:13.123Z,100396.91
2019-05-22T17:57:48.301Z,100400.83
2019-05-22T18:00:35.603Z,100395.31
2019-05-22T18:03:09.085Z,100395.92
2019-05-22T18:05:42.738Z,100396.50
2019-05-22T18:08:17.047Z,100396.17
2019-05-22T18:10:51.524Z,100412.02
2019-05-22T18:13:25.060Z,100422.01
2019-05-22T18:15:58.420Z,100427.17
2019-05-22T18:18:32.411Z,100433.69
2019-05-22T18:21:08.596Z,100438.24
2019-05-22T18:23:41.422Z,100446.05
2019-05-22T18:26:15.644Z,100456.52
2019-05-22T18:28:49.135Z,100463.89
2019-05-22T18:31:22.455Z,100466.88
2019-05-22T18:33:55.968Z,100474.55
2019-05-22T18:36:29.221Z,100476.30
2019-05-22T18:39:02.526Z,100484.63
2019-05-22T18:41:36.070Z,100480.75
2019-05-22T18:44:09.316Z,100481.55
2019-05-22T18:46:42.638Z,100495.88
2019-05-22T18:49:15.884Z,100497.64
2019-05-22T18:51:49.161Z,100502.60
2019-05-22T18:54:22.419Z,100513.09
2019-05-22T18:56:55.843Z,100510.97
2019-05-22T18:59:29.125Z,100517.08
2019-05-22T19:02:02.531Z,100514.14
2019-05-22T19:04:36.466Z,100528.37
2019-05-22T19:07:10.034Z,100520.43
2019-05-22T19:09:43.363Z,100527.91
2019-05-22T19:12:16.890Z,100535.23
2019-05-22T19:14:50.400Z,100542.77
2019-05-22T19:17:24.442Z,100546.30
2019-05-22T19:19:57.850Z,100551.94
2019-05-22T19:22:31.366Z,100559.55
2019-05-22T19:25:04.717Z,100569.20
2019-05-22T19:27:39.179Z,100565.28
2019-05-22T19:30:13.289Z,100566.78
2019-05-22T19:32:46.792Z,100571.52
2019-05-22T19:35:21.067Z,100571.47
2019-05-22T19:37:55.002Z,100579.98
2019-05-22T19:40:28.408Z,100586.56
2019-05-22T19:43:02.436Z,100595.20
2019-05-22T19:45:36.054Z,100593.23
2019-05-22T19:48:10.245Z,100592.55
2019-05-22T19:50:44.000Z,100590.81
2019-05-22T19:53:19.447Z,100594.95
2019-05-22T19:55:53.852Z,100601.70
2019-05-22T19:58:27.281Z,100594.27
2019-05-22T20:01:00.648Z,100597.43
2019-05-22T20:03:34.679Z,100598.58
2019-05-22T20:06:08.020Z,100608.66
2019-05-22T20:08:41.902Z,100610.84
2019-05-22T20:11:15.316Z,100617.97
2019-05-22T20:13:49.579Z,100609.68
2019-05-22T20:16:23.059Z,100619.72
2019-05-22T20:18:58.373Z,100614.80
2019-05-22T20:21:31.770Z,100616.28
2019-05-22T20:24:06.362Z,100619.11
2019-05-22T20:26:39.698Z,100617.45
2019-05-22T20:29:14.695Z,100629.40
2019-05-22T20:31:49.068Z,100628.16
2019-05-22T20:34:22.855Z,100623.13
2019-05-22T20:36:56.337Z,100627.10
2019-05-22T20:39:31.286Z,100623.76
2019-05-22T20:42:05.080Z,100628.66
2019-05-22T20:44:39.378Z,100624.73
2019-05-22T20:47:14.222Z,100625.32
2019-05-22T20:49:49.943Z,100622.02
2019-05-22T20:52:23.284Z,100620.46
2019-05-22T20:54:58.690Z,100627.02
2019-05-22T20:57:33.822Z,100626.80
2019-05-22T21:00:08.390Z,100627.65
2019-05-22T21:02:45.127Z,100624.11
2019-05-22T21:05:20.088Z,100634.58
2019-05-22T21:07:57.179Z,100638.50
2019-05-22T21:10:32.367Z,100642.01
2019-05-22T21:13:06.054Z,100646.95
2019-05-22T21:15:40.011Z,100645.00
2019-05-22T21:18:14.430Z,100640.48
2019-05-22T21:20:54.880Z,100639.67
2019-05-22T21:23:24.689Z,100639.20
2019-05-22T21:25:58.051Z,100649.83
2019-05-22T21:28:31.764Z,100647.45
2019-05-22T21:31:06.301Z,100649.52
2019-05-22T21:33:40.980Z,100647.30
2019-05-22T21:36:16.601Z,100652.32
2019-05-22T21:38:50.019Z,100661.03
2019-05-22T21:41:24.541Z,100661.54
2019-05-22T21:43:58.436Z,100663.28
2019-05-22T21:46:33.190Z,100673.41
2019-05-22T21:49:06.887Z,100675.11
2019-05-22T21:51:40.146Z,100672.55
2019-05-22T21:54:14.460Z,100665.00
2019-05-22T21:56:48.037Z,100670.23
2019-05-22T21:59:21.945Z,100672.03
2019-05-22T22:02:13.104Z,100681.88
2019-05-22T22:04:47.991Z,100682.34
2019-05-22T22:07:21.462Z,100686.73
2019-05-22T22:09:55.309Z,100689.73
2019-05-22T22:12:29.546Z,100684.17
2019-05-22T22:15:02.852Z,100687.69
2019-05-22T22:17:39.401Z,100680.92
2019-05-22T22:20:14.324Z,100695.62
2019-05-22T22:22:49.312Z,100697.73
2019-05-22T22:25:24.893Z,100693.66
2019-05-22T22:27:58.625Z,100697.77
2019-05-22T22:30:37.673Z,100698.77
2019-05-22T22:33:13.816Z,100693.59
2019-05-22T22:35:47.869Z,100699.16
2019-05-22T22:38:25.042Z,100700.45
2019-05-22T22:41:00.167Z,100701.80
2019-05-22T22:43:37.206Z,100701.77
2019-05-22T22:46:23.413Z,100701.63
2019-05-22T22:48:58.081Z,100684.73
2019-05-22T22:51:32.271Z,100700.84
2019-05-22T22:54:06.946Z,100703.48
2019-05-22T22:56:41.039Z,100705.77
2019-05-22T22:59:14.807Z,100709.59
2019-05-22T23:01:53.459Z,100706.48
2019-05-22T23:04:30.115Z,100705.94
2019-05-22T23:07:08.114Z,100702.66
2019-05-22T23:09:45.117Z,100704.91
2019-05-22T23:12:21.642Z,100706.87
2019-05-22T23:15:00.628Z,100706.80
2019-05-22T23:17:36.407Z,100710.05
2019-05-22T23:20:08.485Z,100714.33
2019-05-22T23:22:40.447Z,100716.02
2019-05-22T23:25:13.937Z,100711.27
2019-05-22T23:27:48.690Z,100720.85
2019-05-22T23:30:23.606Z,100715.36
2019-05-22T23:32:57.601Z,100726.60
2019-05-22T23:35:32.114Z,100715.47
2019-05-22T23:38:06.689Z,100722.50
2019-05-22T23:40:40.133Z,100718.11
2019-05-22T23:43:15.638Z,100713.39
2019-05-22T23:45:51.434Z,100719.43
2019-05-22T23:48:25.564Z,100719.99
2019-05-22T23:50:59.504Z,100717.75
2019-05-22T23:53:36.126Z,100723.86
2019-05-22T23:56:11.189Z,100717.51
2019-05-22T23:58:52.606Z,100709.36
